Time;durP1;ratioP1;P1;durP2;ratioP2;P2;SDS_P1;SDS_P2;PMS_P1;PMS_P2;Temp;Humidity;BMP_temperature;BMP_pressure;BME280_temperature;BME280_humidity;BME280_pressure;Samples;Min_cycle;Max_cycle;Signal;HPM_P1;HPM_P2
2022/11/04 00:03:18;;;;;;;20.90;9.55;;;;;11.70;95192.00;;;;10120230;23;20700;-71
2022/11/04 00:29:06;;;;;;;32.53;13.23;;;;;11.80;95205.00;;;;10113733;23;20712;-72
2022/11/04 00:33:26;;;;;;;27.20;13.20;;;;;11.90;95206.00;;;;10119762;23;20542;-72
2022/11/04 00:37:29;;;;;;;30.42;13.73;;;;;11.90;95217.00;;;;10116543;23;20206;-72
2022/11/04 00:41:32;;;;;;;28.02;12.95;;;;;11.90;95213.00;;;;10108161;23;20194;-72
2022/11/04 00:45:35;;;;;;;29.92;13.45;;;;;12.00;95218.00;;;;10119292;23;20258;-72
2022/11/04 00:49:40;;;;;;;23.05;12.15;;;;;12.00;95217.00;;;;10119459;23;20250;-72
2022/11/04 00:53:43;;;;;;;25.25;12.15;;;;;12.00;95224.00;;;;10118639;23;20223;-71
2022/11/04 00:57:46;;;;;;;23.63;12.35;;;;;12.00;95231.00;;;;10118285;23;20470;-71
2022/11/04 01:01:49;;;;;;;27.05;12.52;;;;;12.00;95233.00;;;;10119881;23;20213;-71
2022/11/04 01:05:54;;;;;;;26.13;12.88;;;;;12.00;95239.00;;;;10119022;23;20225;-71
2022/11/04 01:09:57;;;;;;;26.58;12.38;;;;;12.00;95245.00;;;;10119436;23;20198;-71
2022/11/04 01:14:00;;;;;;;23.85;11.98;;;;;12.00;95265.00;;;;10119103;23;20768;-71
2022/11/04 01:18:04;;;;;;;23.55;12.00;;;;;12.00;95266.00;;;;10120480;23;20206;-71
2022/11/04 01:22:08;;;;;;;25.67;12.05;;;;;11.90;95276.00;;;;10120189;23;20212;-71
2022/11/04 01:26:14;;;;;;;27.40;12.38;;;;;11.80;95281.00;;;;10123124;23;20210;-71
2022/11/04 01:30:17;;;;;;;26.23;13.13;;;;;11.70;95292.00;;;;10120886;23;20211;-72
2022/11/04 01:34:20;;;;;;;25.88;12.18;;;;;11.60;95287.00;;;;10124022;23;20205;-72
2022/11/04 01:38:25;;;;;;;27.10;12.60;;;;;11.50;95293.00;;;;10122708;23;20660;-73
2022/11/04 01:42:28;;;;;;;34.47;14.98;;;;;11.50;95293.00;;;;10124214;23;20214;-76
2022/11/04 01:46:38;;;;;;;40.70;15.05;;;;;11.40;95280.00;;;;10122909;23;20204;-77
2022/11/04 01:50:41;;;;;;;31.02;14.95;;;;;11.40;95286.00;;;;10121055;23;20200;-76
2022/11/04 01:54:48;;;;;;;31.38;13.40;;;;;11.40;95315.00;;;;10122718;23;20216;-76
2022/11/04 01:58:53;;;;;;;29.75;14.00;;;;;11.30;95319.00;;;;10123498;23;20211;-78
2022/11/04 02:02:59;;;;;;;29.58;14.45;;;;;11.30;95320.00;;;;10121192;23;20222;-77
2022/11/04 02:07:05;;;;;;;35.17;13.57;;;;;11.30;95323.00;;;;10124367;23;20217;-76
2022/11/04 02:12:48;;;;;;;25.98;12.50;;;;;11.20;95310.00;;;;10120603;23;20976;-78
2022/11/04 02:15:40;;;;;;;27.50;10.27;;;;;11.20;95310.00;;;;10123354;23;20208;-77
2022/11/04 02:20:04;;;;;;;21.40;10.73;;;;;11.10;95323.00;;;;10115220;23;20205;-76
2022/11/04 02:24:41;;;;;;;18.85;9.40;;;;;11.10;95329.00;;;;10108954;23;20199;-79
2022/11/04 02:29:25;;;;;;;21.88;9.55;;;;;11.10;95328.00;;;;10069488;23;20207;-79
2022/11/04 02:33:34;;;;;;;19.85;8.88;;;;;11.10;95321.00;;;;10025787;23;20648;-77
2022/11/04 02:37:45;;;;;;;18.00;8.55;;;;;11.00;95326.00;;;;10120571;23;20198;-75
2022/11/04 02:41:56;;;;;;;21.17;9.90;;;;;11.00;95321.00;;;;10120835;23;20211;-75
2022/11/04 02:46:05;;;;;;;18.10;8.30;;;;;11.00;95325.00;;;;10120865;23;20212;-75
2022/11/04 02:50:13;;;;;;;13.68;7.70;;;;;11.00;95333.00;;;;10115268;23;20209;-75
2022/11/04 02:54:21;;;;;;;17.85;8.25;;;;;11.00;95331.00;;;;10119708;23;20225;-74
2022/11/04 02:58:28;;;;;;;11.15;6.45;;;;;11.00;95336.00;;;;10122253;23;20212;-75
2022/11/04 03:02:37;;;;;;;10.75;5.65;;;;;11.00;95345.00;;;;10120651;23;20205;-75
2022/11/04 03:06:44;;;;;;;14.05;5.60;;;;;11.00;95346.00;;;;10072911;23;20665;-74
2022/11/04 03:10:53;;;;;;;9.82;5.07;;;;;11.00;95349.00;;;;10073747;23;20208;-73
2022/11/04 03:15:03;;;;;;;7.18;5.18;;;;;11.00;95347.00;;;;10122372;23;20947;-73
2022/11/04 03:19:15;;;;;;;7.53;4.38;;;;;11.00;95353.00;;;;10120597;23;20675;-73
2022/11/04 03:23:20;;;;;;;9.68;4.30;;;;;10.90;95373.00;;;;10074039;23;20199;-72
2022/11/04 03:27:29;;;;;;;6.25;3.60;;;;;10.90;95365.00;;;;10071622;23;20204;-72
2022/11/04 03:31:41;;;;;;;6.85;4.10;;;;;10.90;95374.00;;;;10072751;23;20206;-72
2022/11/04 03:35:44;;;;;;;8.05;3.58;;;;;10.90;95359.00;;;;10116000;23;20215;-72
2022/11/04 03:39:48;;;;;;;6.05;3.55;;;;;10.80;95359.00;;;;10121360;23;20702;-72
2022/11/04 03:43:51;;;;;;;6.72;3.38;;;;;10.80;95354.00;;;;10120684;23;20643;-72
2022/11/04 03:47:56;;;;;;;6.88;3.40;;;;;10.80;95346.00;;;;10120570;23;20212;-72
2022/11/04 03:51:59;;;;;;;6.90;3.65;;;;;10.70;95362.00;;;;10118777;23;20207;-72
2022/11/04 03:56:38;;;;;;;7.00;2.78;;;;;10.70;95360.00;;;;10120528;23;20255;-72
2022/11/04 04:00:49;;;;;;;5.38;2.55;;;;;10.70;95364.00;;;;10042788;23;20196;-72
2022/11/04 04:04:59;;;;;;;4.35;2.95;;;;;10.70;95359.00;;;;10118992;23;20565;-73
2022/11/04 04:09:13;;;;;;;3.42;2.70;;;;;10.70;95368.00;;;;10119159;23;20210;-71
2022/11/04 04:13:33;;;;;;;2.60;2.40;;;;;10.70;95364.00;;;;10069444;23;20207;-72
2022/11/04 04:17:39;;;;;;;3.50;2.63;;;;;10.80;95369.00;;;;10072733;23;20211;-72
2022/11/04 04:21:48;;;;;;;3.00;2.70;;;;;10.80;95363.00;;;;10119500;23;20273;-73
2022/11/04 04:30:17;;;;;;;5.43;2.70;;;;;10.90;95367.00;;;;10119187;23;20859;-73
2022/11/04 04:34:22;;;;;;;5.28;2.35;;;;;10.90;95360.00;;;;10118212;23;20322;-74
2022/11/04 04:47:18;;;;;;;5.85;2.85;;;;;10.90;95354.00;;;;10069681;23;20216;-74
2022/11/04 04:51:22;;;;;;;5.00;2.90;;;;;10.80;95349.00;;;;10108035;23;20206;-73
2022/11/04 04:55:25;;;;;;;4.43;2.90;;;;;10.80;95338.00;;;;10119021;23;20203;-73
2022/11/04 04:59:29;;;;;;;4.22;2.80;;;;;10.80;95329.00;;;;10118199;23;20257;-73
2022/11/04 05:03:33;;;;;;;3.88;2.92;;;;;10.80;95324.00;;;;10118732;23;20209;-73
2022/11/04 05:07:36;;;;;;;3.75;2.75;;;;;10.80;95323.00;;;;10120488;23;20676;-73
2022/11/04 05:11:39;;;;;;;8.40;3.03;;;;;10.80;95328.00;;;;10110137;23;20625;-74
2022/11/04 05:15:43;;;;;;;5.60;2.90;;;;;10.80;95329.00;;;;10120306;23;20268;-73
2022/11/04 05:19:47;;;;;;;3.75;2.53;;;;;10.70;95310.00;;;;10111803;23;20207;-73
2022/11/04 05:23:50;;;;;;;4.40;2.75;;;;;10.70;95323.00;;;;10119654;23;20542;-73
2022/11/04 05:27:53;;;;;;;2.97;2.38;;;;;10.60;95309.00;;;;10116301;23;20645;-73
2022/11/04 05:31:57;;;;;;;4.25;2.53;;;;;10.70;95307.00;;;;10104739;23;20240;-73
2022/11/04 05:36:07;;;;;;;5.13;2.65;;;;;10.60;95293.00;;;;10117710;23;20212;-73
2022/11/04 05:40:12;;;;;;;8.68;2.45;;;;;10.60;95317.00;;;;10120043;23;20198;-73
2022/11/04 05:44:15;;;;;;;3.65;2.50;;;;;10.60;95336.00;;;;10117711;23;20214;-73
2022/11/04 05:48:18;;;;;;;3.97;2.60;;;;;10.60;95331.00;;;;10083848;23;20258;-73
2022/11/04 05:52:23;;;;;;;4.18;2.55;;;;;10.60;95340.00;;;;10117596;23;20700;-73
2022/11/04 05:56:26;;;;;;;6.30;2.28;;;;;10.60;95338.00;;;;10119502;23;20214;-74
2022/11/04 06:00:29;;;;;;;4.88;2.28;;;;;10.60;95348.00;;;;10117477;23;20211;-74
2022/11/04 06:04:32;;;;;;;3.85;2.10;;;;;10.50;95372.00;;;;10119662;23;20216;-74
2022/11/04 06:08:36;;;;;;;5.32;2.75;;;;;10.50;95371.00;;;;10118418;23;20214;-74
2022/11/04 06:12:47;;;;;;;3.17;2.30;;;;;10.50;95370.00;;;;10120670;23;20261;-73
2022/11/04 06:16:50;;;;;;;4.43;2.42;;;;;10.40;95362.00;;;;10065146;23;20197;-74
2022/11/04 06:21:07;;;;;;;6.10;2.33;;;;;10.50;95370.00;;;;10065738;23;20218;-73
2022/11/04 06:25:12;;;;;;;4.45;2.78;;;;;10.50;95369.00;;;;10065186;23;20788;-73
2022/11/04 06:29:16;;;;;;;2.92;2.60;;;;;10.50;95368.00;;;;10070735;23;20262;-73
2022/11/04 06:33:19;;;;;;;5.28;2.95;;;;;10.50;95373.00;;;;10071240;23;20199;-73
2022/11/04 06:37:22;;;;;;;3.38;2.30;;;;;10.50;95393.00;;;;10069276;23;20271;-73
2022/11/04 06:41:27;;;;;;;2.97;2.35;;;;;10.40;95381.00;;;;10073403;23;20241;-73
2022/11/04 06:45:30;;;;;;;3.65;2.20;;;;;10.40;95368.00;;;;10083460;23;20206;-73
2022/11/04 06:49:33;;;;;;;6.50;2.22;;;;;10.40;95381.00;;;;10116108;23;20204;-74
2022/11/04 06:53:36;;;;;;;3.08;2.35;;;;;10.40;95378.00;;;;10118192;23;20206;-75
2022/11/04 06:57:40;;;;;;;7.07;2.25;;;;;10.40;95367.00;;;;10121247;23;20752;-75
2022/11/04 07:01:44;;;;;;;5.30;3.58;;;;;10.40;95384.00;;;;10117349;23;20210;-75
2022/11/04 07:05:47;;;;;;;2.33;1.85;;;;;10.40;95385.00;;;;10121180;23;20238;-73
2022/11/04 07:09:50;;;;;;;5.13;2.40;;;;;10.40;95367.00;;;;10117283;23;20314;-75
2022/11/04 07:13:55;;;;;;;3.10;2.10;;;;;10.40;95381.00;;;;10117147;23;20220;-76
2022/11/04 07:17:58;;;;;;;3.13;2.00;;;;;10.50;95367.00;;;;10117594;23;20215;-75
2022/11/04 07:22:02;;;;;;;3.90;2.13;;;;;10.50;95371.00;;;;10117400;23;20217;-77
2022/11/04 07:26:07;;;;;;;5.07;2.38;;;;;10.60;95374.00;;;;10112661;23;20207;-75
2022/11/04 07:30:12;;;;;;;4.53;2.35;;;;;10.60;95370.00;;;;10118585;23;20222;-76
2022/11/04 07:34:15;;;;;;;5.78;2.05;;;;;10.60;95349.00;;;;10119665;23;20529;-74
2022/11/04 07:38:18;;;;;;;3.38;2.20;;;;;10.60;95340.00;;;;10120255;23;20214;-75
2022/11/04 07:42:21;;;;;;;2.65;1.80;;;;;10.50;95330.00;;;;10118761;23;20203;-74
2022/11/04 07:46:25;;;;;;;6.10;1.98;;;;;10.50;95341.00;;;;10112749;23;20274;-74
2022/11/04 07:50:28;;;;;;;2.97;1.90;;;;;10.50;95355.00;;;;10118061;23;20689;-74
2022/11/04 07:54:32;;;;;;;3.33;1.80;;;;;10.50;95370.00;;;;10116124;23;20202;-75
2022/11/04 07:58:35;;;;;;;5.90;2.40;;;;;10.40;95360.00;;;;10117930;23;20698;-75
2022/11/04 08:02:39;;;;;;;4.03;2.33;;;;;10.50;95368.00;;;;10117833;23;20262;-74
2022/11/04 08:06:43;;;;;;;4.28;1.83;;;;;10.50;95378.00;;;;10118457;23;20210;-75
2022/11/04 08:10:52;;;;;;;2.65;2.10;;;;;10.50;95392.00;;;;10118340;23;20658;-74
2022/11/04 08:14:55;;;;;;;6.45;2.22;;;;;10.50;95419.00;;;;10114126;23;20203;-75
2022/11/04 08:19:01;;;;;;;3.17;1.90;;;;;10.40;95422.00;;;;10119530;23;20211;-75
2022/11/04 08:23:04;;;;;;;8.73;2.75;;;;;10.40;95440.00;;;;10119002;23;20285;-75
2022/11/04 08:27:09;;;;;;;7.20;2.63;;;;;10.40;95451.00;;;;10117540;23;20993;-74
2022/11/04 08:31:16;;;;;;;3.05;2.03;;;;;10.40;95438.00;;;;10118923;23;20422;-74
2022/11/04 08:35:20;;;;;;;2.90;2.10;;;;;10.40;95422.00;;;;10116890;23;20199;-74
2022/11/04 08:39:24;;;;;;;4.13;2.05;;;;;10.40;95418.00;;;;10120022;23;20209;-73
2022/11/04 08:43:27;;;;;;;4.13;2.15;;;;;10.40;95420.00;;;;10066992;23;20259;-73
2022/11/04 08:47:30;;;;;;;6.57;2.17;;;;;10.40;95434.00;;;;10069585;23;20214;-74
2022/11/04 08:51:37;;;;;;;4.85;2.65;;;;;10.40;95434.00;;;;10088873;23;20537;-73
2022/11/04 08:55:40;;;;;;;3.15;2.20;;;;;10.50;95431.00;;;;10120213;23;20234;-74
2022/11/04 08:59:44;;;;;;;4.43;2.53;;;;;10.60;95420.00;;;;10117486;23;20211;-74
2022/11/04 09:03:47;;;;;;;2.25;2.15;;;;;10.70;95410.00;;;;10119136;23;20289;-74
2022/11/04 09:07:52;;;;;;;2.13;1.92;;;;;10.90;95406.00;;;;10105692;23;20760;-74
2022/11/04 09:11:55;;;;;;;3.20;1.90;;;;;11.20;95403.00;;;;10112786;23;20237;-74
2022/11/04 09:15:58;;;;;;;5.68;2.50;;;;;11.40;95389.00;;;;10118355;23;20200;-73
2022/11/04 09:20:02;;;;;;;1.90;1.80;;;;;11.60;95393.00;;;;10115226;23;20745;-73
2022/11/04 09:24:07;;;;;;;6.07;2.38;;;;;11.80;95389.00;;;;10111373;23;20271;-74
2022/11/04 09:28:10;;;;;;;3.08;2.08;;;;;11.80;95396.00;;;;10118729;23;20202;-74
2022/11/04 09:32:13;;;;;;;3.55;2.08;;;;;11.70;95380.00;;;;10114773;23;20451;-74
2022/11/04 09:36:17;;;;;;;4.68;2.33;;;;;11.70;95390.00;;;;10116518;23;20206;-74
2022/11/04 09:40:24;;;;;;;5.72;2.33;;;;;11.60;95394.00;;;;10113776;23;20286;-74
2022/11/04 09:44:33;;;;;;;6.25;2.60;;;;;11.60;95389.00;;;;10117817;23;20735;-74
2022/11/04 09:48:57;;;;;;;10.23;2.50;;;;;11.70;95388.00;;;;10123221;23;20211;-74
2022/11/04 09:53:05;;;;;;;4.30;2.53;;;;;11.70;95378.00;;;;10121688;23;20206;-74
2022/11/04 09:57:16;;;;;;;4.93;2.45;;;;;11.70;95377.00;;;;10121742;23;20216;-74
2022/11/04 10:01:27;;;;;;;6.38;2.60;;;;;11.80;95373.00;;;;10122018;23;20300;-73
2022/11/04 10:05:51;;;;;;;5.55;2.40;;;;;11.80;95378.00;;;;10072196;23;20203;-74
2022/11/04 10:10:05;;;;;;;4.50;2.42;;;;;11.80;95364.00;;;;10115981;23;20228;-74
2022/11/04 10:14:27;;;;;;;7.72;3.33;;;;;11.70;95361.00;;;;10116059;23;20194;-74
2022/11/04 10:19:12;;;;;;;4.82;2.78;;;;;11.50;95361.00;;;;10073081;23;20233;-74
2022/11/04 10:23:22;;;;;;;7.00;2.90;;;;;11.40;95355.00;;;;10045485;23;20207;-73
2022/11/04 10:27:27;;;;;;;6.38;2.97;;;;;11.30;95366.00;;;;10101910;23;20649;-74
2022/11/04 10:31:36;;;;;;;5.55;3.47;;;;;11.30;95370.00;;;;10072174;23;20196;-74
2022/11/04 10:35:43;;;;;;;10.23;3.72;;;;;11.30;95379.00;;;;10072187;23;20249;-74
2022/11/04 10:39:47;;;;;;;6.85;3.40;;;;;11.40;95391.00;;;;10072868;23;20207;-74
2022/11/04 10:43:52;;;;;;;6.15;3.95;;;;;11.40;95386.00;;;;10071406;23;20526;-73
2022/11/04 10:48:02;;;;;;;3.88;3.15;;;;;11.40;95373.00;;;;10074420;23;20214;-73
2022/11/04 10:52:07;;;;;;;7.90;3.13;;;;;11.50;95372.00;;;;10107290;23;20901;-74
2022/11/04 10:56:20;;;;;;;6.30;3.17;;;;;11.50;95361.00;;;;10117145;23;20214;-74
2022/11/04 11:00:37;;;;;;;11.60;6.05;;;;;11.60;95360.00;;;;10119534;23;20224;-70
2022/11/04 11:04:45;;;;;;;5.80;2.92;;;;;11.70;95360.00;;;;10114813;23;20203;-70
2022/11/04 11:08:49;;;;;;;8.90;5.97;;;;;11.80;95350.00;;;;10120152;23;20218;-70
2022/11/04 11:12:57;;;;;;;16.55;13.80;;;;;11.90;95350.00;;;;10117963;23;20205;-71
2022/11/04 11:17:17;;;;;;;2.92;2.58;;;;;12.00;95336.00;;;;10119687;23;20285;-71
2022/11/04 11:21:22;;;;;;;5.07;3.95;;;;;12.00;95333.00;;;;10118396;23;20215;-70
2022/11/04 11:25:28;;;;;;;2.60;2.40;;;;;12.10;95336.00;;;;10119497;23;20207;-70
2022/11/04 11:29:39;;;;;;;7.72;3.67;;;;;12.20;95329.00;;;;10072884;23;20211;-70
2022/11/04 11:33:50;;;;;;;6.43;3.58;;;;;12.20;95332.00;;;;10112109;23;20336;-69
2022/11/04 11:37:55;;;;;;;5.57;2.72;;;;;12.30;95323.00;;;;10112397;23;20463;-69
2022/11/04 11:42:02;;;;;;;3.25;2.90;;;;;12.20;95327.00;;;;10100250;23;20238;-69
2022/11/04 11:46:06;;;;;;;6.28;3.15;;;;;12.20;95324.00;;;;10115132;23;20816;-70
2022/11/04 11:50:15;;;;;;;63.38;31.00;;;;;12.10;95332.00;;;;10110443;23;20598;-69
2022/11/04 11:54:35;;;;;;;11.20;7.22;;;;;12.00;95334.00;;;;10110456;23;20299;-69
2022/11/04 11:58:44;;;;;;;50.65;26.25;;;;;11.90;95329.00;;;;10118303;23;20582;-69
2022/11/04 12:03:15;;;;;;;60.72;26.50;;;;;12.00;95335.00;;;;10104177;23;20209;-70
2022/11/04 12:07:30;;;;;;;10.70;5.22;;;;;11.90;95344.00;;;;10112587;23;20739;-70
2022/11/04 12:12:05;;;;;;;14.30;4.60;;;;;11.90;95357.00;;;;10115982;23;20881;-69
2022/11/04 12:16:21;;;;;;;16.75;10.55;;;;;11.80;95360.00;;;;10113515;23;20569;-69
2022/11/04 12:20:35;;;;;;;15.05;7.28;;;;;11.80;95363.00;;;;10116335;23;20205;-69
2022/11/04 12:24:52;;;;;;;8.82;3.38;;;;;11.70;95370.00;;;;10116798;23;20195;-69
2022/11/04 12:29:12;;;;;;;5.28;2.90;;;;;11.70;95374.00;;;;10106522;23;20228;-69
2022/11/04 12:33:25;;;;;;;10.45;3.00;;;;;11.70;95368.00;;;;10111933;23;20475;-69
2022/11/04 12:37:38;;;;;;;7.10;3.10;;;;;11.70;95364.00;;;;10103690;23;20254;-70
2022/11/04 12:41:51;;;;;;;11.27;3.25;;;;;11.70;95358.00;;;;10068999;23;20205;-69
2022/11/04 12:46:25;;;;;;;9.32;2.85;;;;;11.80;95360.00;;;;10113598;23;20529;-70
2022/11/04 12:50:50;;;;;;;8.10;2.78;;;;;11.90;95369.00;;;;10116616;23;20259;-69
2022/11/04 12:55:05;;;;;;;4.75;2.58;;;;;11.90;95372.00;;;;10117454;23;20223;-70
2022/11/04 12:59:35;;;;;;;5.18;2.58;;;;;12.00;95375.00;;;;10068145;23;20297;-69
2022/11/04 13:03:46;;;;;;;9.20;2.70;;;;;11.90;95372.00;;;;10110876;23;20212;-69
2022/11/04 13:07:56;;;;;;;5.50;2.70;;;;;11.80;95373.00;;;;10117480;23;20200;-69
2022/11/04 13:12:04;;;;;;;7.13;2.75;;;;;11.90;95367.00;;;;10116596;23;20208;-70
2022/11/04 13:16:11;;;;;;;4.45;2.65;;;;;11.90;95373.00;;;;10116256;23;20200;-70
2022/11/04 13:20:27;;;;;;;5.68;2.95;;;;;11.80;95374.00;;;;10119305;23;20576;-70
2022/11/04 13:24:34;;;;;;;5.85;2.67;;;;;11.80;95374.00;;;;10117162;23;20253;-69
2022/11/04 13:28:40;;;;;;;8.27;2.67;;;;;11.90;95370.00;;;;10115693;23;20234;-69
2022/11/04 13:32:54;;;;;;;3.75;2.60;;;;;11.90;95373.00;;;;10118522;23;20657;-69
2022/11/04 13:37:12;;;;;;;6.18;2.40;;;;;11.90;95379.00;;;;10117733;23;20273;-68
2022/11/04 13:41:32;;;;;;;7.18;2.45;;;;;11.80;95386.00;;;;10064600;23;20204;-69
2022/11/04 13:45:46;;;;;;;9.45;2.00;;;;;11.80;95392.00;;;;10091799;23;20198;-69
2022/11/04 13:49:53;;;;;;;7.82;2.25;;;;;11.80;95405.00;;;;10068591;23;20210;-69
2022/11/04 13:53:58;;;;;;;5.28;1.80;;;;;11.70;95414.00;;;;10105024;23;20217;-69
2022/11/04 13:58:04;;;;;;;7.00;2.33;;;;;11.70;95415.00;;;;10116951;23;20203;-69
2022/11/04 14:02:43;;;;;;;3.78;2.15;;;;;11.70;95420.00;;;;10114758;23;20256;-69
2022/11/04 14:06:51;;;;;;;8.02;2.65;;;;;11.70;95423.00;;;;10116640;23;20240;-69
2022/11/04 14:11:09;;;;;;;4.35;1.80;;;;;11.80;95432.00;;;;10118147;23;20220;-69
2022/11/04 14:15:15;;;;;;;4.75;2.30;;;;;11.80;95418.00;;;;10114337;23;20960;-70
2022/11/04 14:19:47;;;;;;;4.40;2.10;;;;;11.80;95424.00;;;;10119515;23;21011;-69
2022/11/04 14:23:52;;;;;;;5.55;2.70;;;;;11.80;95424.00;;;;10053289;23;20202;-69
2022/11/04 14:27:59;;;;;;;6.88;2.78;;;;;11.80;95412.00;;;;10120794;23;20208;-69
2022/11/04 14:32:12;;;;;;;13.52;3.75;;;;;11.80;95425.00;;;;10118348;23;20215;-69
2022/11/04 14:36:30;;;;;;;7.88;3.00;;;;;11.70;95434.00;;;;10116380;23;20231;-68
2022/11/04 14:40:51;;;;;;;6.10;2.30;;;;;11.70;95434.00;;;;10117846;23;20221;-69
2022/11/04 14:44:55;;;;;;;4.05;2.22;;;;;11.70;95435.00;;;;10078905;23;20429;-69
2022/11/04 14:49:00;;;;;;;5.55;2.45;;;;;11.70;95441.00;;;;10120351;23;20239;-69
2022/11/04 14:53:05;;;;;;;7.65;2.17;;;;;11.70;95449.00;;;;10119836;23;20204;-69
2022/11/04 14:57:20;;;;;;;4.03;1.80;;;;;11.60;95452.00;;;;10107057;23;20198;-68
2022/11/04 15:01:28;;;;;;;3.92;1.80;;;;;11.60;95463.00;;;;10072926;23;20624;-69
2022/11/04 15:05:38;;;;;;;3.38;1.77;;;;;11.50;95462.00;;;;10071676;23;20205;-69
2022/11/04 15:09:48;;;;;;;4.28;1.90;;;;;11.40;95459.00;;;;10114181;23;20209;-69
2022/11/04 15:13:58;;;;;;;6.55;2.08;;;;;11.40;95467.00;;;;10121676;23;20207;-69
2022/11/04 15:18:08;;;;;;;18.05;3.22;;;;;11.40;95472.00;;;;10121402;23;20199;-68
2022/11/04 15:22:13;;;;;;;5.60;2.10;;;;;11.40;95472.00;;;;10096351;23;20208;-69
2022/11/04 15:26:23;;;;;;;6.80;2.28;;;;;11.40;95473.00;;;;10121504;23;20208;-69
2022/11/04 15:30:32;;;;;;;9.18;2.40;;;;;11.40;95473.00;;;;10119422;23;20207;-69
2022/11/04 15:34:36;;;;;;;8.02;2.70;;;;;11.30;95469.00;;;;10118997;23;20237;-69
2022/11/04 15:38:44;;;;;;;5.22;2.40;;;;;11.30;95475.00;;;;10120623;23;20564;-69
2022/11/04 15:42:48;;;;;;;8.45;2.70;;;;;11.20;95483.00;;;;10071995;23;20207;-69
2022/11/04 15:46:53;;;;;;;8.52;2.92;;;;;11.20;95487.00;;;;10072299;23;20212;-69
2022/11/04 15:51:23;;;;;;;8.50;2.67;;;;;11.20;95490.00;;;;10071958;23;20222;-69
2022/11/04 15:55:28;;;;;;;6.78;2.40;;;;;11.20;95493.00;;;;10044946;23;20242;-69
2022/11/04 15:59:33;;;;;;;5.32;2.40;;;;;11.20;95491.00;;;;10071544;23;20288;-69
2022/11/04 16:03:36;;;;;;;7.38;2.30;;;;;11.20;95497.00;;;;10071412;23;20202;-69
2022/11/04 16:07:42;;;;;;;4.65;2.10;;;;;11.10;95491.00;;;;10071928;23;20503;-69
2022/11/04 16:12:03;;;;;;;6.60;2.45;;;;;11.10;95505.00;;;;10076817;23;20211;-69
2022/11/04 16:16:16;;;;;;;8.32;2.47;;;;;11.00;95502.00;;;;10071119;23;20204;-69
2022/11/04 16:20:19;;;;;;;7.35;2.22;;;;;11.00;95503.00;;;;10114751;23;20195;-69
2022/11/04 16:24:26;;;;;;;3.35;2.35;;;;;11.00;95506.00;;;;10120164;23;20205;-69
2022/11/04 16:28:31;;;;;;;13.80;3.05;;;;;11.00;95502.00;;;;10119524;23;20215;-69
2022/11/04 16:32:41;;;;;;;8.95;3.50;;;;;11.00;95507.00;;;;10119996;23;20280;-69
2022/11/04 16:36:44;;;;;;;7.70;2.15;;;;;11.00;95503.00;;;;10107111;23;20219;-68
2022/11/04 16:40:50;;;;;;;6.82;2.30;;;;;10.90;95511.00;;;;10120060;23;20218;-68
2022/11/04 16:45:00;;;;;;;8.38;2.28;;;;;10.90;95513.00;;;;10119911;23;20222;-68
2022/11/04 16:49:03;;;;;;;6.30;2.40;;;;;10.90;95508.00;;;;10121425;23;20304;-69
2022/11/04 16:53:07;;;;;;;9.07;2.03;;;;;10.80;95510.00;;;;10112301;23;20259;-69
2022/11/04 16:57:15;;;;;;;4.35;1.95;;;;;10.80;95511.00;;;;10116337;23;20211;-69
2022/11/04 17:01:18;;;;;;;7.32;2.08;;;;;10.80;95525.00;;;;10117896;23;20203;-68
2022/11/04 17:05:21;;;;;;;6.03;2.33;;;;;10.70;95524.00;;;;10104551;23;20202;-68
2022/11/04 17:09:24;;;;;;;4.85;2.20;;;;;10.70;95522.00;;;;10117756;23;20507;-68
2022/11/04 17:13:29;;;;;;;3.95;2.58;;;;;10.60;95532.00;;;;10120109;23;20199;-68
2022/11/04 17:17:38;;;;;;;5.75;2.90;;;;;10.60;95528.00;;;;10116524;23;20278;-69
2022/11/04 17:21:41;;;;;;;7.68;3.05;;;;;10.50;95538.00;;;;10110812;23;20210;-68
2022/11/04 17:25:45;;;;;;;5.40;3.10;;;;;10.50;95533.00;;;;10116079;23;20217;-68
2022/11/04 17:29:50;;;;;;;12.50;3.22;;;;;10.40;95541.00;;;;10117265;23;20218;-69
2022/11/04 17:33:53;;;;;;;4.60;3.10;;;;;10.40;95541.00;;;;10116278;23;20218;-69
2022/11/04 17:37:56;;;;;;;10.15;3.67;;;;;10.40;95539.00;;;;10118173;23;20210;-69
2022/11/04 17:46:37;;;;;;;8.65;3.97;;;;;10.20;95549.00;;;;10115361;23;20557;-69
2022/11/04 17:50:41;;;;;;;16.35;6.15;;;;;10.20;95552.00;;;;10118869;23;20649;-68
2022/11/04 17:54:44;;;;;;;17.30;6.45;;;;;10.20;95561.00;;;;10116925;23;20330;-69
2022/11/04 17:58:47;;;;;;;15.15;6.30;;;;;10.20;95565.00;;;;10113028;23;20659;-69
2022/11/04 18:02:52;;;;;;;9.02;4.28;;;;;10.20;95560.00;;;;10114181;23;20739;-69
2022/11/04 18:06:56;;;;;;;11.40;6.65;;;;;10.10;95568.00;;;;10119808;23;20214;-69
2022/11/04 18:11:08;;;;;;;8.77;5.18;;;;;10.10;95574.00;;;;10119566;23;20265;-69
2022/11/04 18:15:15;;;;;;;8.73;3.95;;;;;10.00;95585.00;;;;10121904;23;20312;-69
2022/11/04 18:19:22;;;;;;;6.38;3.72;;;;;10.00;95577.00;;;;10107475;23;20217;-69
2022/11/04 18:23:26;;;;;;;9.68;3.55;;;;;10.00;95580.00;;;;10118171;23;20677;-69
2022/11/04 18:27:29;;;;;;;5.03;3.40;;;;;9.90;95589.00;;;;10119708;23;20213;-69
2022/11/04 18:31:34;;;;;;;8.45;4.40;;;;;9.80;95591.00;;;;10118868;23;20206;-69
2022/11/04 18:35:39;;;;;;;12.15;4.40;;;;;9.80;95604.00;;;;10116203;23;20208;-69
2022/11/04 18:39:43;;;;;;;10.73;4.88;;;;;9.80;95600.00;;;;10119321;23;20208;-69
2022/11/04 18:43:47;;;;;;;7.82;5.70;;;;;9.80;95604.00;;;;10119601;23;20207;-69
2022/11/04 18:47:50;;;;;;;12.70;5.05;;;;;9.80;95604.00;;;;10070806;23;20195;-69
2022/11/04 18:51:54;;;;;;;19.83;5.87;;;;;9.80;95613.00;;;;10067400;23;20213;-69
2022/11/04 18:56:02;;;;;;;14.97;5.83;;;;;9.80;95608.00;;;;10115756;23;20222;-69
2022/11/04 19:00:06;;;;;;;10.80;5.00;;;;;9.80;95608.00;;;;10121278;23;20239;-69
2022/11/04 19:04:16;;;;;;;8.47;5.20;;;;;9.90;95618.00;;;;10122696;23;20239;-69
2022/11/04 19:08:20;;;;;;;10.10;5.22;;;;;9.90;95622.00;;;;10119113;23;20195;-68
2022/11/04 19:16:44;;;;;;;11.35;5.07;;;;;9.90;95639.00;;;;10120241;23;20215;-68
2022/11/04 19:20:47;;;;;;;12.25;5.15;;;;;9.90;95646.00;;;;10121433;23;20213;-68
2022/11/04 19:24:51;;;;;;;16.88;5.93;;;;;9.90;95655.00;;;;10121283;23;20759;-69
2022/11/04 19:28:55;;;;;;;10.60;5.33;;;;;10.00;95659.00;;;;10118099;23;20654;-68
2022/11/04 19:32:58;;;;;;;14.15;6.32;;;;;9.90;95660.00;;;;10118238;23;20278;-69
2022/11/04 19:37:03;;;;;;;10.00;5.63;;;;;9.90;95673.00;;;;10119375;23;20215;-69
2022/11/04 19:45:41;;;;;;;11.43;5.38;;;;;9.70;95667.00;;;;10107970;23;20209;-69
2022/11/04 19:49:44;;;;;;;14.13;4.90;;;;;9.60;95676.00;;;;10117508;23;20213;-69
2022/11/04 19:53:48;;;;;;;12.13;5.22;;;;;9.60;95685.00;;;;10121552;23;20215;-69
2022/11/04 19:57:52;;;;;;;17.27;5.20;;;;;9.50;95696.00;;;;10117350;23;20233;-69
2022/11/04 20:01:56;;;;;;;9.40;5.15;;;;;9.50;95704.00;;;;10116331;23;20222;-69
2022/11/04 20:05:59;;;;;;;7.70;5.35;;;;;9.50;95720.00;;;;10115322;23;20285;-69
2022/11/04 20:10:02;;;;;;;13.85;6.20;;;;;9.40;95717.00;;;;10116448;23;20210;-69
2022/11/04 20:14:07;;;;;;;12.48;6.40;;;;;9.30;95725.00;;;;10117495;23;20215;-69
2022/11/04 20:18:10;;;;;;;9.38;5.80;;;;;9.30;95729.00;;;;10116120;23;20207;-68
2022/11/04 20:22:14;;;;;;;14.75;7.25;;;;;9.30;95728.00;;;;10116580;23;20213;-70
2022/11/04 20:26:19;;;;;;;12.77;7.57;;;;;9.20;95728.00;;;;10116618;23;20241;-68
2022/11/04 20:30:24;;;;;;;16.40;7.60;;;;;9.10;95736.00;;;;10103181;23;20218;-69
2022/11/04 20:34:27;;;;;;;10.02;4.70;;;;;9.10;95742.00;;;;10114491;23;20210;-69
2022/11/04 20:38:35;;;;;;;9.60;5.53;;;;;9.00;95743.00;;;;10118159;23;20498;-68
2022/11/04 20:42:46;;;;;;;11.70;4.90;;;;;9.10;95746.00;;;;10115652;23;20305;-69
2022/11/04 20:46:51;;;;;;;12.15;5.00;;;;;9.10;95758.00;;;;10113476;23;20238;-68
2022/11/04 20:50:54;;;;;;;12.82;5.15;;;;;9.10;95775.00;;;;10110030;23;20530;-69
2022/11/04 20:54:57;;;;;;;10.55;5.40;;;;;9.20;95776.00;;;;10116248;23;20214;-69
2022/11/04 20:59:01;;;;;;;9.33;4.93;;;;;9.20;95775.00;;;;10116173;23;20213;-70
2022/11/04 21:03:05;;;;;;;11.27;5.00;;;;;9.20;95776.00;;;;10115361;23;20265;-69
2022/11/04 21:07:09;;;;;;;7.78;4.47;;;;;9.20;95779.00;;;;10114647;23;20537;-70
2022/11/04 21:11:12;;;;;;;11.90;4.55;;;;;9.20;95779.00;;;;10115901;23;20206;-70